Time;durP1;ratioP1;P1;durP2;ratioP2;P2;SDS_P1;SDS_P2;PMS_P1;PMS_P2;Temp;Humidity;BMP_temperature;BMP_pressure;BME280_temperature;BME280_humidity;BME280_pressure;Samples;Min_cycle;Max_cycle;Signal;HPM_P1;HPM_P2
2021/03/16 00:01:15;;;;;;;;;;;;;;;16.02;39.04;100080.28;4406207;32;19989;-53
2021/03/16 00:03:41;;;;;;;;;;;;;;;16.07;38.85;100075.16;4415873;32;20260;-50
2021/03/16 00:06:07;;;;;;;;;;;;;;;16.07;39.08;100088.28;4411687;32;19997;-52
2021/03/16 00:08:33;;;;;;;;;;;;;;;16.06;38.86;100097.94;4414650;32;19961;-53
2021/03/16 00:10:58;;;;;;;;;;;;;;;16.06;38.91;100104.91;4415259;32;19966;-53
2021/03/16 00:13:24;;;;;;;;;;;;;;;16.10;38.91;100101.50;4415558;32;19987;-52
2021/03/16 00:15:50;;;;;;;;;;;;;;;16.06;39.01;100107.53;4415842;32;19990;-54
2021/03/16 00:18:16;;;;;;;;;;;;;;;16.13;38.73;100112.09;4413670;32;20365;-53
2021/03/16 00:20:42;;;;;;;;;;;;;;;16.11;38.77;100111.16;4414551;32;19958;-54
2021/03/16 00:23:08;;;;;;;;;;;;;;;16.08;38.90;100109.34;4414315;32;19990;-54
2021/03/16 00:25:34;;;;;;;;;;;;;;;16.08;39.07;100111.97;4413975;32;19972;-52
2021/03/16 00:28:00;;;;;;;;;;;;;;;16.13;38.79;100114.72;4414959;32;20001;-53
2021/03/16 00:30:26;;;;;;;;;;;;;;;16.09;38.84;100112.84;4414130;32;19962;-52
2021/03/16 00:32:52;;;;;;;;;;;;;;;16.10;38.85;100114.63;4414721;32;19982;-56
2021/03/16 00:35:18;;;;;;;;;;;;;;;16.10;38.86;100114.63;4413883;32;20006;-55
2021/03/16 00:37:44;;;;;;;;;;;;;;;16.15;38.82;100121.78;4414702;32;20002;-52
2021/03/16 00:40:10;;;;;;;;;;;;;;;16.08;38.81;100121.59;4414622;32;20369;-55
2021/03/16 00:42:36;;;;;;;;;;;;;;;16.05;38.91;100126.78;4415144;32;19966;-56
2021/03/16 00:45:02;;;;;;;;;;;;;;;16.00;38.97;100145.03;4414944;32;19966;-53
2021/03/16 00:47:28;;;;;;;;;;;;;;;16.05;39.03;100143.44;4412307;32;20581;-53
2021/03/16 00:49:54;;;;;;;;;;;;;;;16.10;38.86;100148.78;4414774;32;19973;-53
2021/03/16 00:52:19;;;;;;;;;;;;;;;16.04;38.95;100157.38;4414182;32;19953;-55
2021/03/16 00:54:45;;;;;;;;;;;;;;;16.01;39.09;100167.81;4413882;32;20050;-54
2021/03/16 00:57:11;;;;;;;;;;;;;;;16.11;38.91;100158.44;4413977;32;19996;-54
2021/03/16 00:59:37;;;;;;;;;;;;;;;16.11;38.80;100169.84;4414071;32;20503;-55
2021/03/16 01:02:03;;;;;;;;;;;;;;;16.05;38.96;100161.81;4414422;32;19993;-53
2021/03/16 01:04:29;;;;;;;;;;;;;;;16.00;39.26;100164.31;4414701;32;19958;-55
2021/03/16 01:06:55;;;;;;;;;;;;;;;15.98;39.22;100173.88;4412745;32;20703;-50
2021/03/16 01:09:21;;;;;;;;;;;;;;;16.04;39.05;100170.53;4414776;32;19958;-51
2021/03/16 01:11:47;;;;;;;;;;;;;;;16.04;39.09;100174.91;4415633;32;19978;-51
2021/03/16 01:14:13;;;;;;;;;;;;;;;15.98;39.15;100173.88;4413260;32;20013;-53
2021/03/16 01:16:39;;;;;;;;;;;;;;;15.91;39.31;100177.19;4412843;32;20265;-52
2021/03/16 01:19:04;;;;;;;;;;;;;;;16.02;39.14;100175.75;4413895;32;19973;-55
2021/03/16 01:21:30;;;;;;;;;;;;;;;16.00;39.09;100180.06;4413665;32;20002;-53
2021/03/16 01:23:56;;;;;;;;;;;;;;;15.97;39.25;100187.84;4414339;32;20386;-52
2021/03/16 01:26:22;;;;;;;;;;;;;;;16.05;39.17;100190.72;4400744;32;19962;-52
2021/03/16 01:28:48;;;;;;;;;;;;;;;16.01;39.18;100200.25;4413600;32;19980;-51
2021/03/16 01:31:14;;;;;;;;;;;;;;;16.05;38.98;100190.72;4414145;32;20337;-53
2021/03/16 01:33:40;;;;;;;;;;;;;;;16.06;38.89;100203.00;4413336;32;19966;-52
2021/03/16 01:36:06;;;;;;;;;;;;;;;16.02;39.14;100194.13;4414181;32;20347;-54
2021/03/16 01:38:31;;;;;;;;;;;;;;;16.02;39.12;100191.50;4414221;32;19962;-52
2021/03/16 01:40:58;;;;;;;;;;;;;;;16.05;39.04;100197.69;4417606;32;19976;-52
2021/03/16 01:43:23;;;;;;;;;;;;;;;16.11;38.88;100196.13;4417215;32;20020;-54
2021/03/16 01:45:49;;;;;;;;;;;;;;;16.07;38.85;100211.75;4417983;32;20311;-52
2021/03/16 01:48:15;;;;;;;;;;;;;;;16.00;39.11;100214.22;4415600;32;19997;-55
2021/03/16 01:50:41;;;;;;;;;;;;;;;15.95;39.40;100223.69;4417722;32;20315;-52
2021/03/16 01:53:07;;;;;;;;;;;;;;;16.01;39.09;100221.25;4416729;32;19961;-50
2021/03/16 01:55:33;;;;;;;;;;;;;;;16.04;39.16;100214.31;4416689;32;19976;-54
2021/03/16 01:57:59;;;;;;;;;;;;;;;16.11;38.88;100221.47;4416860;32;19976;-52
2021/03/16 02:00:25;;;;;;;;;;;;;;;16.05;39.02;100216.06;4416891;32;19966;-53
2021/03/16 02:02:51;;;;;;;;;;;;;;;16.00;39.18;100214.22;4416842;32;19966;-55
2021/03/16 02:05:17;;;;;;;;;;;;;;;15.99;39.13;100217.69;4415924;32;20016;-54
2021/03/16 02:07:43;;;;;;;;;;;;;;;16.01;39.04;100221.25;4415981;32;19969;-53
2021/03/16 02:10:08;;;;;;;;;;;;;;;15.99;39.16;100217.69;4416357;32;20025;-55
2021/03/16 02:12:34;;;;;;;;;;;;;;;16.00;39.27;100229.09;4416772;32;19968;-53
2021/03/16 02:15:00;;;;;;;;;;;;;;;15.95;39.26;100210.56;4416350;32;20346;-53
2021/03/16 02:17:26;;;;;;;;;;;;;;;15.96;39.28;100227.22;4416006;32;19970;-55
2021/03/16 02:19:52;;;;;;;;;;;;;;;15.98;39.23;100226.41;4416284;32;19966;-53
2021/03/16 02:22:18;;;;;;;;;;;;;;;15.95;39.28;100228.94;4416363;32;19962;-51
2021/03/16 02:24:44;;;;;;;;;;;;;;;15.92;39.37;100221.00;4416770;32;19966;-54
2021/03/16 02:27:10;;;;;;;;;;;;;;;15.97;39.28;100218.50;4416045;32;20008;-52
2021/03/16 02:29:36;;;;;;;;;;;;;;;16.01;39.26;100223.87;4416858;32;19972;-53
2021/03/16 02:32:02;;;;;;;;;;;;;;;15.91;39.53;100224.47;4416976;32;19950;-51
2021/03/16 02:34:27;;;;;;;;;;;;;;;15.91;39.44;100211.34;4412495;32;19962;-53
2021/03/16 02:36:53;;;;;;;;;;;;;;;16.02;39.17;100211.62;4415890;32;19954;-52
2021/03/16 02:39:19;;;;;;;;;;;;;;;15.93;39.28;100224.53;4415387;32;20570;-51
2021/03/16 02:41:45;;;;;;;;;;;;;;;15.99;39.25;100222.94;4417363;32;19993;-55
2021/03/16 02:44:11;;;;;;;;;;;;;;;16.01;39.19;100228.22;4415195;32;19954;-52
2021/03/16 02:46:37;;;;;;;;;;;;;;;15.99;39.24;100224.66;4417054;32;19988;-52
2021/03/16 02:49:03;;;;;;;;;;;;;;;15.99;39.31;100232.56;4415260;32;20413;-55
2021/03/16 02:51:29;;;;;;;;;;;;;;;15.99;39.28;100227.31;4416575;32;19980;-53
2021/03/16 02:53:54;;;;;;;;;;;;;;;16.05;39.08;100232.75;4415418;32;19958;-53
2021/03/16 02:56:20;;;;;;;;;;;;;;;16.02;39.06;100236.16;4416366;32;19979;-53
2021/03/16 02:58:46;;;;;;;;;;;;;;;16.01;39.22;100241.38;4415757;32;19987;-52
2021/03/16 03:01:13;;;;;;;;;;;;;;;15.96;39.38;100243.84;4415812;32;19949;-54
2021/03/16 03:03:38;;;;;;;;;;;;;;;15.98;39.36;100242.16;4416618;32;19958;-54
2021/03/16 03:06:04;;;;;;;;;;;;;;;15.96;39.38;100249.09;4415973;32;20429;-52
2021/03/16 03:08:30;;;;;;;;;;;;;;;15.99;39.27;100248.31;4415023;32;19972;-52
2021/03/16 03:10:56;;;;;;;;;;;;;;;15.95;39.25;100256.97;4415936;32;20020;-53
2021/03/16 03:13:22;;;;;;;;;;;;;;;15.99;39.25;100254.47;4415975;32;20049;-53
2021/03/16 03:15:48;;;;;;;;;;;;;;;16.02;39.14;100261.53;4415335;32;19981;-54
2021/03/16 03:18:14;;;;;;;;;;;;;;;16.00;39.21;100263.22;4411709;32;20325;-54
2021/03/16 03:20:40;;;;;;;;;;;;;;;16.02;39.22;100264.16;4415650;32;20556;-55
2021/03/16 03:23:06;;;;;;;;;;;;;;;15.98;39.32;100265.78;4414713;32;19998;-53
2021/03/16 03:25:31;;;;;;;;;;;;;;;16.07;39.18;100267.81;4415785;32;19962;-53
2021/03/16 03:27:59;;;;;;;;;;;;;;;15.96;39.28;100272.75;4415324;32;19962;-51
2021/03/16 03:30:24;;;;;;;;;;;;;;;15.98;39.18;100284.19;4415836;32;20533;-54
2021/03/16 03:32:50;;;;;;;;;;;;;;;16.00;39.14;100282.53;4415671;32;19994;-55
2021/03/16 03:35:16;;;;;;;;;;;;;;;16.00;39.24;100282.53;4415414;32;20006;-53
2021/03/16 03:37:42;;;;;;;;;;;;;;;16.02;39.24;100280.81;4414641;32;19984;-54
2021/03/16 03:40:08;;;;;;;;;;;;;;;15.99;39.21;100288.63;4415744;32;20305;-53
2021/03/16 03:42:34;;;;;;;;;;;;;;;16.04;39.10;100286.09;4414929;32;19957;-53
2021/03/16 03:45:00;;;;;;;;;;;;;;;16.00;39.28;100286.88;4415361;32;19958;-53
2021/03/16 03:47:25;;;;;;;;;;;;;;;15.99;39.26;100286.00;4413557;32;19973;-54
2021/03/16 03:49:51;;;;;;;;;;;;;;;16.03;39.19;100297.44;4415276;32;20365;-51
2021/03/16 03:52:17;;;;;;;;;;;;;;;16.00;39.24;100306.16;4414428;32;20049;-53
2021/03/16 03:54:43;;;;;;;;;;;;;;;15.99;39.28;100306.09;4415182;32;19997;-54
2021/03/16 03:57:09;;;;;;;;;;;;;;;15.94;39.24;100303.34;4415048;32;19957;-52
2021/03/16 03:59:35;;;;;;;;;;;;;;;15.98;39.21;100305.19;4415361;32;19958;-54
2021/03/16 04:02:01;;;;;;;;;;;;;;;15.97;39.30;100308.66;4414777;32;20332;-53
2021/03/16 04:04:27;;;;;;;;;;;;;;;15.99;39.33;100312.25;4413976;32;19966;-51
2021/03/16 04:06:53;;;;;;;;;;;;;;;15.96;39.27;100313.91;4415098;32;19962;-56
2021/03/16 04:09:18;;;;;;;;;;;;;;;15.93;39.29;100327.81;4413649;32;19958;-52
2021/03/16 04:11:44;;;;;;;;;;;;;;;15.98;39.26;100320.09;4414774;32;19953;-54
2021/03/16 04:14:10;;;;;;;;;;;;;;;15.98;39.22;100320.94;4413635;32;20003;-51
2021/03/16 04:16:36;;;;;;;;;;;;;;;16.00;39.07;100324.53;4414751;32;20089;-54
2021/03/16 04:19:02;;;;;;;;;;;;;;;16.04;39.16;100324.63;4413357;32;19958;-51
2021/03/16 04:21:28;;;;;;;;;;;;;;;16.04;39.20;100324.63;4412954;32;20231;-54
2021/03/16 04:23:54;;;;;;;;;;;;;;;16.04;39.17;100324.63;4414143;32;20321;-55
2021/03/16 04:26:20;;;;;;;;;;;;;;;15.95;39.34;100336.63;4413573;32;19954;-52
2021/03/16 04:28:46;;;;;;;;;;;;;;;15.93;39.39;100338.31;4414721;32;19938;-55
2021/03/16 04:31:11;;;;;;;;;;;;;;;15.90;39.43;100335.63;4415207;32;19972;-51
2021/03/16 04:33:37;;;;;;;;;;;;;;;16.01;39.19;100333.28;4413685;32;19961;-53
2021/03/16 04:36:04;;;;;;;;;;;;;;;15.95;39.31;100335.75;4414681;32;19958;-51
2021/03/16 04:38:30;;;;;;;;;;;;;;;15.95;39.31;100334.00;4413382;32;20268;-53
2021/03/16 04:40:56;;;;;;;;;;;;;;;15.96;39.41;100332.28;4414494;32;20024;-55
2021/03/16 04:43:22;;;;;;;;;;;;;;;16.02;39.25;100333.34;4414014;32;19979;-49
2021/03/16 04:45:48;;;;;;;;;;;;;;;15.95;39.38;100338.37;4414686;32;20011;-53
2021/03/16 04:48:14;;;;;;;;;;;;;;;15.92;39.46;100335.63;4412855;32;20465;-51
2021/03/16 04:50:40;;;;;;;;;;;;;;;15.95;39.38;100343.62;4407214;32;19977;-54
2021/03/16 04:53:06;;;;;;;;;;;;;;;15.97;39.39;100342.81;4398461;32;20014;-55
2021/03/16 04:55:34;;;;;;;;;;;;;;;15.90;39.37;100348.75;4399751;32;19990;-54
2021/03/16 04:58:00;;;;;;;;;;;;;;;15.98;39.23;100352.47;4401356;32;19963;-53
2021/03/16 05:00:26;;;;;;;;;;;;;;;15.95;39.37;100362.91;4398279;32;19969;-53
2021/03/16 05:02:52;;;;;;;;;;;;;;;15.90;39.43;100359.25;4398747;32;19962;-53
2021/03/16 05:05:18;;;;;;;;;;;;;;;15.93;39.43;100366.34;4398138;32;19958;-53
2021/03/16 05:07:43;;;;;;;;;;;;;;;15.99;39.23;100362.16;4399581;32;19982;-54
2021/03/16 05:10:09;;;;;;;;;;;;;;;15.94;39.27;100374.25;4398179;32;20562;-53
2021/03/16 05:12:35;;;;;;;;;;;;;;;15.96;39.34;100372.56;4399590;32;19977;-51
2021/03/16 05:15:01;;;;;;;;;;;;;;;15.97;39.30;100379.59;4402462;32;19958;-52
2021/03/16 05:17:27;;;;;;;;;;;;;;;15.96;39.34;100375.19;4401954;32;19958;-55
2021/03/16 05:19:53;;;;;;;;;;;;;;;15.96;39.24;100385.69;4401789;32;19958;-52
2021/03/16 05:22:19;;;;;;;;;;;;;;;15.95;39.30;100381.28;4401316;32;19980;-54
2021/03/16 05:24:45;;;;;;;;;;;;;;;15.91;39.56;100387.28;4402815;32;19973;-52
2021/03/16 05:27:10;;;;;;;;;;;;;;;15.90;39.43;100382.87;4400786;32;20416;-52
2021/03/16 05:29:36;;;;;;;;;;;;;;;15.95;39.40;100389.16;4402596;32;19954;-55
2021/03/16 05:32:02;;;;;;;;;;;;;;;15.96;39.38;100396.19;4402468;32;20002;-52
2021/03/16 05:34:28;;;;;;;;;;;;;;;15.97;39.17;100405.84;4401146;32;19962;-52
2021/03/16 05:36:55;;;;;;;;;;;;;;;15.96;39.22;100406.69;4401883;32;19962;-55
2021/03/16 05:39:21;;;;;;;;;;;;;;;15.92;39.38;100404.84;4398030;32;19990;-54
2021/03/16 05:41:47;;;;;;;;;;;;;;;15.91;39.41;100403.06;4400477;32;19963;-53
2021/03/16 05:44:13;;;;;;;;;;;;;;;15.92;39.46;100401.31;4400962;32;19954;-52
2021/03/16 05:46:39;;;;;;;;;;;;;;;15.98;39.24;100410.25;4401934;32;20331;-55
2021/03/16 05:49:05;;;;;;;;;;;;;;;16.02;39.21;100406.00;4401143;32;19947;-53
2021/03/16 05:51:30;;;;;;;;;;;;;;;15.92;39.35;100414.44;4401310;32;20623;-53
2021/03/16 05:53:56;;;;;;;;;;;;;;;15.90;39.38;100417.03;4401791;32;20002;-51
2021/03/16 05:56:22;;;;;;;;;;;;;;;15.89;39.51;100415.22;4400571;32;20998;-53
2021/03/16 05:58:48;;;;;;;;;;;;;;;15.90;39.45;100417.03;4398720;32;19985;-54
2021/03/16 06:01:16;;;;;;;;;;;;;;;15.91;39.50;100407.41;4402146;32;19954;-50
2021/03/16 06:03:42;;;;;;;;;;;;;;;15.91;39.41;100413.56;4401407;32;20938;-52
2021/03/16 06:06:08;;;;;;;;;;;;;;;15.94;39.38;100418.03;4402767;32;19955;-56
2021/03/16 06:08:34;;;;;;;;;;;;;;;15.92;39.42;100420.59;4401460;32;19961;-55
2021/03/16 06:11:00;;;;;;;;;;;;;;;16.00;39.15;100419.09;4402086;32;19970;-53
2021/03/16 06:13:26;;;;;;;;;;;;;;;15.95;39.36;100425.06;4401627;32;20272;-52
2021/03/16 06:15:53;;;;;;;;;;;;;;;15.94;39.42;100428.53;4401700;32;19957;-53
2021/03/16 06:18:18;;;;;;;;;;;;;;;16.00;39.24;100429.63;4399718;32;19988;-54
2021/03/16 06:20:44;;;;;;;;;;;;;;;15.98;39.28;100436.53;4402134;32;19955;-52
2021/03/16 06:23:10;;;;;;;;;;;;;;;15.93;39.34;100434.63;4401542;32;19947;-55
2021/03/16 06:25:36;;;;;;;;;;;;;;;15.92;39.39;100445.94;4401848;32;20503;-52
2021/03/16 06:28:02;;;;;;;;;;;;;;;15.92;39.32;100446.84;4400201;32;19996;-53
2021/03/16 06:30:28;;;;;;;;;;;;;;;15.98;39.24;100451.41;4400079;32;20009;-55
2021/03/16 06:32:54;;;;;;;;;;;;;;;16.05;39.16;100447.25;4412437;32;19942;-54
2021/03/16 06:35:20;;;;;;;;;;;;;;;15.99;39.22;100453.19;4416472;32;20355;-54
2021/03/16 06:37:46;;;;;;;;;;;;;;;15.95;39.30;100456.56;4416761;32;20057;-52
2021/03/16 06:40:12;;;;;;;;;;;;;;;15.95;39.36;100457.44;4415388;32;20446;-51
2021/03/16 06:42:38;;;;;;;;;;;;;;;15.94;39.44;100463.56;4415471;32;20041;-56
2021/03/16 06:45:04;;;;;;;;;;;;;;;15.98;39.33;100467.16;4409601;32;19977;-54
2021/03/16 06:47:30;;;;;;;;;;;;;;;16.00;39.25;100479.53;4402583;32;20012;-51
2021/03/16 06:49:55;;;;;;;;;;;;;;;16.05;39.19;100470.87;4400238;32;19997;-49
2021/03/16 06:52:21;;;;;;;;;;;;;;;16.07;39.12;100477.97;4399045;32;19973;-55
2021/03/16 06:54:47;;;;;;;;;;;;;;;16.02;39.22;100480.47;4404353;32;20036;-50
2021/03/16 06:57:13;;;;;;;;;;;;;;;15.93;39.41;100482.78;4401184;32;20004;-54
2021/03/16 06:59:39;;;;;;;;;;;;;;;16.05;39.20;100487.56;4400508;32;20341;-52
2021/03/16 07:02:05;;;;;;;;;;;;;;;16.08;39.16;100489.38;4401157;32;19982;-54
2021/03/16 07:04:31;;;;;;;;;;;;;;;16.10;39.04;100491.22;4401063;32;19974;-53
2021/03/16 07:06:57;;;;;;;;;;;;;;;16.18;38.91;100491.44;4401334;32;21448;-55
2021/03/16 07:09:23;;;;;;;;;;;;;;;16.14;39.00;100492.19;4398658;32;20041;-51
2021/03/16 07:11:55;;;;;;;;;;;;;;;16.18;38.94;100496.69;4399921;32;19966;-53
2021/03/16 07:14:21;;;;;;;;;;;;;;;16.18;38.94;100496.69;4396940;32;20398;-53
2021/03/16 07:16:47;;;;;;;;;;;;;;;16.20;38.85;100497.63;4396925;32;19996;-55
2021/03/16 07:19:13;;;;;;;;;;;;;;;16.20;38.92;100500.25;4414185;32;19958;-54
2021/03/16 07:21:39;;;;;;;;;;;;;;;16.21;38.90;100504.66;4415261;32;19954;-53
2021/03/16 07:24:05;;;;;;;;;;;;;;;16.24;38.82;100507.41;4412023;32;21776;-55
2021/03/16 07:26:31;;;;;;;;;;;;;;;16.25;38.81;100509.19;4414305;32;19966;-53
2021/03/16 07:28:57;;;;;;;;;;;;;;;16.21;38.92;100515.19;4413401;32;20050;-51
2021/03/16 07:31:23;;;;;;;;;;;;;;;16.21;38.97;100512.56;4414100;32;20037;-46
2021/03/16 07:33:49;;;;;;;;;;;;;;;16.26;38.84;100517.97;4414266;32;19954;-53
2021/03/16 07:36:15;;;;;;;;;;;;;;;16.20;39.01;100512.53;4413499;32;20135;-56
2021/03/16 07:38:41;;;;;;;;;;;;;;;16.21;38.97;100512.56;4413476;32;19954;-48
2021/03/16 07:41:07;;;;;;;;;;;;;;;16.18;39.04;100520.34;4413960;32;19953;-48
2021/03/16 07:43:33;;;;;;;;;;;;;;;16.21;39.00;100528.31;4414510;32;19958;-50
2021/03/16 07:45:59;;;;;;;;;;;;;;;16.21;39.00;100528.31;4413686;32;19974;-50
2021/03/16 07:48:24;;;;;;;;;;;;;;;16.20;38.99;100526.53;4411800;32;19973;-48
2021/03/16 07:50:51;;;;;;;;;;;;;;;16.28;38.85;100535.56;4414332;32;19998;-46
2021/03/16 07:53:16;;;;;;;;;;;;;;;16.26;38.90;100542.53;4413917;32;19966;-48
2021/03/16 07:55:42;;;;;;;;;;;;;;;16.25;38.94;100539.81;4414242;32;19997;-51
2021/03/16 07:58:10;;;;;;;;;;;;;;;16.26;38.96;100541.59;4412210;32;19966;-50
2021/03/16 08:00:36;;;;;;;;;;;;;;;16.29;38.88;100542.59;4413342;32;20161;-48
2021/03/16 08:03:02;;;;;;;;;;;;;;;16.29;38.87;100539.97;4413966;32;19970;-50
2021/03/16 08:05:28;;;;;;;;;;;;;;;16.24;39.00;100549.47;4398673;32;19986;-51
2021/03/16 08:07:54;;;;;;;;;;;;;;;16.26;38.99;100545.16;4410043;32;19966;-54
2021/03/16 08:10:20;;;;;;;;;;;;;;;16.29;38.91;100553.13;4412916;32;19958;-49
2021/03/16 08:12:46;;;;;;;;;;;;;;;16.29;38.94;100549.59;4413600;32;20046;-49
2021/03/16 08:15:13;;;;;;;;;;;;;;;16.29;38.93;100550.50;4412976;32;19995;-50
2021/03/16 08:17:39;;;;;;;;;;;;;;;16.33;38.89;100545.31;4413214;32;20380;-52
2021/03/16 08:20:05;;;;;;;;;;;;;;;16.35;38.84;100546.25;4412912;32;19990;-49
2021/03/16 08:22:30;;;;;;;;;;;;;;;16.37;38.82;100544.59;4410296;32;20468;-53
2021/03/16 08:24:56;;;;;;;;;;;;;;;16.39;38.78;100548.16;4413855;32;20006;-50
2021/03/16 08:27:25;;;;;;;;;;;;;;;16.41;38.69;100547.34;4412908;32;20151;-52
2021/03/16 08:29:51;;;;;;;;;;;;;;;16.38;38.84;100552.50;4404702;32;20610;-48
2021/03/16 08:32:17;;;;;;;;;;;;;;;16.40;38.78;100549.94;4413558;32;20005;-50
2021/03/16 08:34:44;;;;;;;;;;;;;;;16.37;38.87;100552.50;4413214;32;20417;-53
2021/03/16 08:37:10;;;;;;;;;;;;;;;16.40;38.85;100556.06;4411591;32;20010;-52
2021/03/16 08:39:36;;;;;;;;;;;;;;;16.37;38.96;100560.38;4413272;32;20032;-48
2021/03/16 08:42:02;;;;;;;;;;;;;;;16.33;39.04;100558.47;4398043;32;19977;-47
2021/03/16 08:44:28;;;;;;;;;;;;;;;16.27;39.26;100564.41;4397061;32;20035;-50
2021/03/16 08:46:54;;;;;;;;;;;;;;;16.16;39.59;100567.59;4397251;32;19973;-51
2021/03/16 08:49:20;;;;;;;;;;;;;;;16.27;39.38;100565.31;4405694;32;20404;-49
2021/03/16 08:51:46;;;;;;;;;;;;;;;16.29;39.42;100562.72;4413007;32;19982;-47
2021/03/16 08:54:11;;;;;;;;;;;;;;;16.38;39.25;100560.41;4411810;32;19998;-47
2021/03/16 08:56:37;;;;;;;;;;;;;;;16.37;39.34;100561.25;4409740;32;19962;-47
2021/03/16 08:59:03;;;;;;;;;;;;;;;16.53;38.97;100567.88;4411121;32;19981;-51
2021/03/16 09:01:29;;;;;;;;;;;;;;;16.60;38.88;100565.44;4414356;32;20336;-49
2021/03/16 09:03:57;;;;;;;;;;;;;;;16.65;38.73;100569.13;4413074;32;19950;-50
2021/03/16 09:06:23;;;;;;;;;;;;;;;16.66;38.64;100557.75;4413706;32;20070;-49
2021/03/16 09:08:49;;;;;;;;;;;;;;;16.60;38.80;100568.06;4410281;32;20390;-56
2021/03/16 09:11:15;;;;;;;;;;;;;;;16.63;38.79;100570.81;4411913;32;19950;-56
2021/03/16 09:13:41;;;;;;;;;;;;;;;16.69;38.62;100573.63;4411028;32;20670;-51
2021/03/16 09:16:07;;;;;;;;;;;;;;;16.71;38.61;100569.28;4412948;32;19994;-54
2021/03/16 09:18:33;;;;;;;;;;;;;;;16.73;38.55;100580.78;4412638;32;19992;-56
2021/03/16 09:20:59;;;;;;;;;;;;;;;16.74;38.56;100579.03;4413709;32;19970;-48
2021/03/16 09:23:25;;;;;;;;;;;;;;;16.73;38.61;100575.50;4412800;32;19965;-51
2021/03/16 09:25:51;;;;;;;;;;;;;;;16.75;38.64;100572.91;4413355;32;20008;-51
2021/03/16 09:28:17;;;;;;;;;;;;;;;16.76;38.62;100570.34;4412313;32;20009;-48
2021/03/16 09:30:44;;;;;;;;;;;;;;;16.76;38.61;100572.06;4412811;32;20400;-55
2021/03/16 09:33:10;;;;;;;;;;;;;;;16.76;38.63;100570.34;4412702;32;20010;-51
2021/03/16 09:35:36;;;;;;;;;;;;;;;16.76;38.61;100572.97;4412840;32;20087;-51
2021/03/16 09:38:02;;;;;;;;;;;;;;;16.78;38.62;100579.16;4413123;32;19965;-51
2021/03/16 09:40:28;;;;;;;;;;;;;;;15.70;38.17;100581.78;4407338;32;20041;-51
2021/03/16 09:42:54;;;;;;;;;;;;;;;15.19;40.15;100578.22;4413487;32;20009;-52
2021/03/16 09:45:20;;;;;;;;;;;;;;;15.66;39.43;100577.22;4412961;32;19973;-53
2021/03/16 09:47:46;;;;;;;;;;;;;;;15.89;39.37;100580.69;4411566;32;20013;-54
2021/03/16 09:50:12;;;;;;;;;;;;;;;16.04;39.15;100579.44;4410429;32;19964;-54
2021/03/16 09:52:38;;;;;;;;;;;;;;;16.04;39.10;100580.31;4413735;32;19955;-51
2021/03/16 09:55:03;;;;;;;;;;;;;;;16.05;39.38;100575.97;4411767;32;20298;-54
2021/03/16 09:57:29;;;;;;;;;;;;;;;16.14;39.11;100576.28;4412912;32;20699;-54
2021/03/16 09:59:55;;;;;;;;;;;;;;;16.20;39.21;100581.72;4414945;32;19954;-53
2021/03/16 10:02:21;;;;;;;;;;;;;;;16.21;39.34;100573.00;4415720;32;19954;-55
2021/03/16 10:04:47;;;;;;;;;;;;;;;16.27;39.03;100570.56;4415918;32;19970;-48
2021/03/16 10:07:13;;;;;;;;;;;;;;;16.33;38.92;100576.88;4415847;32;20016;-52
2021/03/16 10:09:39;;;;;;;;;;;;;;;16.34;38.92;100576.94;4415580;32;19995;-53
2021/03/16 10:12:05;;;;;;;;;;;;;;;16.21;39.25;100580.88;4415719;32;19999;-54
2021/03/16 10:14:31;;;;;;;;;;;;;;;16.22;39.45;100584.41;4414367;32;20584;-50
2021/03/16 10:16:57;;;;;;;;;;;;;;;16.18;39.51;100586.03;4415068;32;19972;-52
2021/03/16 10:19:23;;;;;;;;;;;;;;;16.36;39.33;100582.22;4415543;32;20049;-52
2021/03/16 10:21:49;;;;;;;;;;;;;;;16.39;39.22;100580.59;4415576;32;20263;-51
2021/03/16 10:24:15;;;;;;;;;;;;;;;16.38;39.30;100583.19;4414829;32;19986;-49
2021/03/16 10:26:41;;;;;;;;;;;;;;;16.40;39.22;100581.50;4415903;32;19950;-51
2021/03/16 10:29:07;;;;;;;;;;;;;;;16.41;39.21;100588.53;4414919;32;19995;-53
2021/03/16 10:31:32;;;;;;;;;;;;;;;16.42;39.24;100590.31;4413772;32;19962;-51
2021/03/16 10:33:58;;;;;;;;;;;;;;;16.49;39.13;100581.78;4416423;32;19966;-53
2021/03/16 10:36:24;;;;;;;;;;;;;;;16.41;39.36;100588.53;4409472;32;19959;-51
2021/03/16 10:38:50;;;;;;;;;;;;;;;16.50;39.33;100591.47;4407417;32;20023;-49
2021/03/16 10:41:16;;;;;;;;;;;;;;;16.31;39.97;100592.59;4402252;32;20387;-53
2021/03/16 10:43:42;;;;;;;;;;;;;;;16.26;40.07;100594.16;4416042;32;19958;-55
2021/03/16 10:46:08;;;;;;;;;;;;;;;16.26;39.87;100600.34;4416111;32;19950;-51
2021/03/16 10:48:34;;;;;;;;;;;;;;;16.51;39.59;100601.12;4415598;32;19968;-50
2021/03/16 10:51:00;;;;;;;;;;;;;;;16.45;39.94;100598.28;4416716;32;20370;-51
2021/03/16 10:53:25;;;;;;;;;;;;;;;16.41;40.12;100593.78;4416062;32;20580;-49
2021/03/16 10:55:51;;;;;;;;;;;;;;;16.44;40.00;100596.50;4416799;32;19957;-51
2021/03/16 10:58:17;;;;;;;;;;;;;;;16.43;40.01;100589.47;4414046;32;19955;-56
2021/03/16 11:00:43;;;;;;;;;;;;;;;16.38;40.14;100596.31;4414599;32;20349;-50
2021/03/16 11:03:09;;;;;;;;;;;;;;;16.43;39.99;100597.34;4415068;32;20012;-53
2021/03/16 11:05:35;;;;;;;;;;;;;;;16.51;39.83;100595.88;4416759;32;19968;-57
2021/03/16 11:08:01;;;;;;;;;;;;;;;16.41;40.04;100593.78;4415322;32;19998;-57
2021/03/16 11:10:27;;;;;;;;;;;;;;;16.39;40.06;100592.84;4415859;32;19950;-53
2021/03/16 11:12:53;;;;;;;;;;;;;;;16.49;40.21;100592.31;4414965;32;19991;-53
2021/03/16 11:15:18;;;;;;;;;;;;;;;16.55;39.90;100584.59;4415786;32;19973;-53
2021/03/16 11:17:44;;;;;;;;;;;;;;;16.45;40.39;100579.87;4415524;32;20431;-56
2021/03/16 11:20:10;;;;;;;;;;;;;;;16.30;40.85;100591.69;4414486;32;19954;-52
2021/03/16 11:22:37;;;;;;;;;;;;;;;16.50;40.62;100573.06;4411877;32;20306;-55
2021/03/16 11:25:03;;;;;;;;;;;;;;;16.54;40.39;100584.53;4413306;32;20006;-54
2021/03/16 11:27:29;;;;;;;;;;;;;;;16.56;40.11;100580.25;4403997;32;20410;-52
2021/03/16 11:29:55;;;;;;;;;;;;;;;16.53;39.87;100580.13;4405848;32;20013;-56
2021/03/16 11:32:21;;;;;;;;;;;;;;;16.56;39.61;100581.12;4411530;32;19965;-55
2021/03/16 11:34:47;;;;;;;;;;;;;;;16.62;39.43;100574.28;4414307;32;19950;-55
2021/03/16 11:37:13;;;;;;;;;;;;;;;16.62;39.42;100575.16;4411727;32;20335;-53
2021/03/16 11:39:39;;;;;;;;;;;;;;;16.64;39.33;100581.34;4413958;32;19967;-52
2021/03/16 11:42:05;;;;;;;;;;;;;;;16.63;39.34;100579.56;4414082;32;20005;-53
2021/03/16 11:44:31;;;;;;;;;;;;;;;16.61;39.37;100581.25;4413580;32;19959;-52
2021/03/16 11:46:57;;;;;;;;;;;;;;;16.62;39.30;100569.91;4413824;32;20001;-52
2021/03/16 11:49:23;;;;;;;;;;;;;;;16.65;39.23;100569.13;4413839;32;20034;-54
2021/03/16 11:51:49;;;;;;;;;;;;;;;16.68;39.16;100562.22;4414569;32;20295;-55
2021/03/16 11:54:15;;;;;;;;;;;;;;;16.69;39.12;100552.56;4413571;32;19961;-52
2021/03/16 11:56:40;;;;;;;;;;;;;;;16.66;39.19;100555.13;4415792;32;19992;-50
2021/03/16 11:59:06;;;;;;;;;;;;;;;16.63;39.22;100558.53;4401152;32;20303;-54
2021/03/16 12:01:32;;;;;;;;;;;;;;;16.62;39.24;100567.28;4408830;32;19958;-53
2021/03/16 12:03:58;;;;;;;;;;;;;;;16.62;39.20;100556.75;4415951;32;19950;-51
2021/03/16 12:06:24;;;;;;;;;;;;;;;16.60;39.22;100552.28;4413842;32;19958;-52
2021/03/16 12:08:50;;;;;;;;;;;;;;;16.62;39.20;100559.37;4414022;32;19997;-53
2021/03/16 12:11:16;;;;;;;;;;;;;;;16.67;39.08;100554.28;4413120;32;20364;-55
2021/03/16 12:13:42;;;;;;;;;;;;;;;16.67;39.07;100549.00;4414224;32;19988;-52
2021/03/16 12:16:08;;;;;;;;;;;;;;;16.71;38.98;100546.53;4413326;32;19993;-53
2021/03/16 12:18:34;;;;;;;;;;;;;;;16.73;38.92;100543.97;4413330;32;19970;-53
2021/03/16 12:21:00;;;;;;;;;;;;;;;16.71;38.89;100541.25;4412677;32;19945;-54
2021/03/16 12:23:26;;;;;;;;;;;;;;;16.77;38.76;100540.56;4412575;32;19969;-55
2021/03/16 12:25:53;;;;;;;;;;;;;;;16.74;38.86;100539.56;4410765;32;19980;-55
2021/03/16 12:28:19;;;;;;;;;;;;;;;16.72;38.91;100540.41;4411857;32;19953;-55